Tropical Cyclones
[Index]
Main Index Home Page Stock Weather Photos Extreme Storms Discussion Storm News and Storm Chasing Reports Tropical Cyclones / Hurricanes / Typhoons Weather Data and Links Wild Fires / Bushfires Weather Observation Techniques Weather Picture Catalogue Tornado Pictures and Reports Stock Video Footage and DVDs for sale
Season 2017-2018 Tropical Cyclone IRVING Track Map
Season 2017-2018 Summaries (Operational Data): [AU] [SIO] [SPAC] [SH]
<<- Previous TC | 2017-2018 Season | Next TC ->>

click for intensity scale information  Lat/long Grid: Show Hide

 Date Labels: Show Hide

Operational Tropical Cyclone Data : JTWC Advisories

Name: IRVING
Number: 1804

01 Jan 2018 12:00 UTC to 11 Jan 2018 00:00 UTC

    date/time    lat    long     hPa   cat  kts
2018-01-01 12    4.6    96.1    1005         15          
2018-01-01 18    4.9    95.6    1005         15          
2018-01-02 00    5.1    95.2    1005         15          
2018-01-02 06    5.4    94.9    1010         15          
2018-01-02 12    5.8    94.9    1010         15          
2018-01-02 18    5.2    95.9    1010         15          
2018-01-03 00    5.3    95.5    1010         15          
2018-01-03 06    5.4    95.1    1010         15          
2018-01-03 12    7.7    96.2    1010         15          
2018-01-03 18    8.4    95.5    1010         15          
2018-01-04 00    8.8    94.8    1007         20          
2018-01-04 06    9.8    94.7    1007         20          
2018-01-04 12   10.1    94.6    1007         20          
2018-01-04 18   10.4    94.4    1007         20          
2018-01-05 00   10.7    94.0    1007         20          
2018-01-05 06   11.2    93.8    1003         25          
2018-01-05 12   11.9    93.3    1002         25          
2018-01-05 18   12.3    92.5    1000         30          
2018-01-06 00   12.5    91.6     998    1    35          
2018-01-06 06   12.6    91.6     998    1    35          
2018-01-06 12   12.8    89.3     996    1    40          
2018-01-06 18   12.9    88.2     995    1    45          
2018-01-07 00   13.4    87.0     990    2    55          
2018-01-07 06   13.9    85.7     983    3    65          
2018-01-07 12   14.8    84.2     976    3    75          
2018-01-07 18   15.8    83.0     967    4    90          
2018-01-08 00   16.7    81.3     966    4    90          
2018-01-08 06   17.6    79.5     967    4    90          
2018-01-08 12   18.3    78.2     966    4    90          
2018-01-08 18   19.1    76.8     966    4    90          
2018-01-09 00   20.1    75.1     969    3    85          
2018-01-09 06   21.3    73.5     977    3    75          
2018-01-09 12   22.5    72.1     976    3    70          
2018-01-09 18   23.9    70.5     982    3    65          
2018-01-10 00   25.5    69.3     982    2    55          
2018-01-10 06   27.5    68.4     992    1    45          
2018-01-10 12   30.2    68.2     991    1    40          
2018-01-10 18   33.4    69.3     992    1    40          
2018-01-11 00   36.1    71.7     993    1    40          
Winds are 10-min average.

Tropical cyclone tracks developed by Michael Bath using operational warnings and advisories and Google Maps.


[Australian Severe Weather index] [Copyright Notice] [Email Contacts] [Search This Site] [Privacy Policy]
Document: tropical_cyclone_irving.htm Updated: 11 March 2020